Crooked Creek Research Lab Weather observations

Data are for 10 minute period ending at time listed.
 Day   Time    Ave.   Ave.  Ave.  Vector   Max.   Stn.    Total    Solar   Ave.   Snow 
  of    of     Air    Rel.  Wind   Wind    Wind   Baro.  Precip.   Rad.    Soil   Depth
Year   Day     Temp.  Hum.  Speed  Dir.    Gust   Pres.                    Temp.       
2016   (PST)    F      %     mph   deg.    mph     mb.     in.     W/m2     F      in. 
---------------------------------------------------------------------------------------  
 241    5:00   35.9    50    1.0   150      4.5   708.0    0.00       0    999.0    -0.6
 241    5:10   35.9    50    0.6    44      2.7   708.1    0.00       1    999.0    -0.6
 241    5:20   36.0    49    0.5   207      2.1   708.2    0.00       3    999.0    -0.6
 241    5:30   35.9    48    0.5   122      2.7   708.2    0.00       7    999.0    -0.6
 241    5:40   35.8    48    0.7   123      2.0   708.2    0.00      11    999.0    -0.6
 241    5:50   35.8    49    0.8   118      3.1   708.3    0.00      15    999.0    -0.6
 241    6:00   35.8    49    0.8   124      3.3   708.2    0.00      17    999.0    -0.6
 241    6:10   36.4    49    0.5   127      2.2   708.4    0.00      20    999.0    -0.5
 241    6:20   37.9    48    1.1   147      2.7   708.4    0.00      22    999.0    -0.6
 241    6:30   39.4    46    1.3   136      3.1   708.6    0.00      24    999.0    -0.5
 241    6:40   41.1    44    1.9   127      4.5   708.5    0.00      26    999.0    -0.5
 241    6:50   45.2    38    2.7   116      4.4   708.7    0.00      28    999.0    -0.5
 241    7:00   47.6    35    2.5   115      4.2   708.7    0.00     189    999.0    -0.7
 241    7:10   50.1    33    2.9   108      4.7   708.7    0.00     328    999.0    -0.7
 241    7:20   54.1    28    2.0    89      3.8   708.9    0.00     362    999.0    -0.7
 241    7:30   57.8    26    1.0    96      2.3   709.0    0.00     395    999.0    -0.9
 241    7:40   60.0    22    1.9    18      4.1   709.0    0.00     429    999.0    -1.0
 241    7:50   59.7    22    1.4    21      3.4   709.0    0.00     462    999.0    -0.9
 241    8:00   60.7    22    2.6   102      8.1   709.2    0.00     494    999.0    -1.0
 241    8:10   59.7    22    2.1   125      6.1   709.3    0.00     524    999.0    -0.9
 241    8:20   61.1    22    2.1     9      4.7   709.4    0.00     554    999.0    -0.8
 241    8:30   62.1    21    1.6    27      6.6   709.5    0.00     582    999.0    -1.0
 241    8:40   61.6    21    2.3   159      5.6   709.5    0.00     608    999.0    -0.9
 241    8:50   60.6    23    3.7   209      9.4   709.6    0.00     635    999.0    -0.7
 241    9:00   60.1    24    3.2   173      8.5   709.6    0.00     660    999.0    -0.6
 241    9:10   61.2    23    3.1   207      7.3   709.6    0.00     685    999.0    -0.7
 241    9:20   60.9    23    5.0   130     18.2   709.7    0.00     709    999.0    -0.7
 241    9:30   61.2    22    4.0   141      8.6   709.7    0.00     730    999.0    -0.7
 241    9:40   61.1    22    5.7   134     11.8   709.8    0.00     752    999.0    -0.6
 241    9:50   61.3    21    3.4   115     10.2   709.8    0.00     770    999.0    -0.6
 241   10:00   62.3    21    3.5   134      8.2   709.8    0.00     786    999.0    -0.7
 241   10:10   62.4    22    4.7   188     12.8   709.7    0.00     803    999.0    -0.7
 241   10:20   61.7    23    5.4   164     12.1   709.8    0.00     817    999.0    -0.5
 241   10:30   62.6    22    4.1   145     12.6   709.8    0.00     832    999.0    -0.6
 241   10:40   62.2    22    5.5   137     11.2   709.8    0.00     848    999.0    -0.6
 241   10:50   62.9    22    5.2   124     13.0   709.8    0.00     860    999.0    -0.6
 241   11:00   63.7    22    4.1   164     10.9   709.7    0.00     876    999.0    -0.5
 241   11:10   63.8    21    4.3   141     10.4   709.5    0.00     879    999.0    -0.6
 241   11:20   64.1    21    4.0   112      9.9   709.8    0.00     888    999.0    -0.7
 241   11:30   64.1    20    2.8   133     10.4   709.7    0.00     778    999.0    -0.7
 241   11:40   63.6    22    4.4   191     15.0   709.8    0.00     813    999.0    -0.6
 241   11:50   64.3    22    4.2   342     10.3   709.8    0.00     843    999.0    -0.7
 241   12:00   63.9    22    5.2   225     13.3   709.8    0.00     942    999.0    -0.6
 241   12:10   64.5    21    3.7    93     11.0   709.8    0.00     940    999.0    -0.6
 241   12:20   65.2    20    3.8   137     10.9   709.9    0.00     846    999.0    -0.6
 241   12:30   65.4    19    3.1   126     10.1   709.9    0.00     957    999.0    -0.7
 241   12:40   65.5    19    4.8   140     14.3   709.8    0.00     975    999.0    -0.5
 241   12:50   64.8    19    4.6   348     12.1   709.9    0.00     980    999.0    -0.7
 241   13:00   65.3    19    4.7    16     13.3   709.8    0.00     949    999.0    -0.5
 241   13:10   64.5    19    6.1   350     12.9   709.7    0.00     602    999.0    -0.6
 241   13:20   65.7    20    9.2   322     18.3   709.7    0.00     920    999.0    -0.4
 241   13:30   66.8    19    5.5   131     13.4   709.7    0.00     913    999.0    -0.6
 241   13:40   66.5    19    3.8   286      9.3   709.7    0.00     878    999.0    -0.6
 241   13:50   66.2    18    4.3   307     11.5   709.5    0.00     875    999.0    -0.6
 241   14:00   66.7    18    4.4   332     11.8   709.4    0.00     863    999.0    -0.7
 241   14:10   66.3    18    7.6    32     16.4   709.3    0.00     836    999.0    -0.6
 241   14:20   67.0    17    4.8    29     12.5   709.4    0.00     818    999.0    -0.7
 241   14:30   66.0    18    5.8     5     11.8   709.3    0.00     763    999.0    -0.5
 241   14:40   66.4    18    6.4    31     13.7   709.3    0.00     732    999.0    -0.8
 241   14:50   66.7    18    4.2     2     11.2   709.3    0.00     724    999.0    -0.7
 241   15:00   66.5    18    4.1   357     12.6   709.3    0.00     692    999.0    -0.7
 241   15:10   66.4    18    5.3   347     15.3   709.1    0.00     686    999.0    -0.5
 241   15:20   66.1    18    7.6    38     17.5   709.1    0.00     655    999.0    -0.5
 241   15:30   66.8    18    4.2    49     13.3   709.0    0.00     595    999.0    -0.7
 241   15:40   66.8    18    4.5    54     13.5   709.1    0.00     577    999.0    -0.6
 241   15:50   65.5    18    5.0   133     10.7   709.1    0.00     570    999.0    -0.6
 241   16:00   66.2    18    5.1   121     10.8   709.1    0.00     532    999.0    -0.7
 241   16:10   66.3    18    4.8   120     10.9   709.1    0.00     506    999.0    -0.7
 241   16:20   66.7    17    4.2   139     12.9   709.3    0.00     469    999.0    -0.9
 241   16:30   65.2    18    4.0   115     10.3   709.3    0.00     430    999.0    -0.7
 241   16:40   64.8    18    4.6   139     11.2   709.3    0.00     387    999.0    -0.7
 241   16:50   64.3    18    3.7   137     10.5   709.3    0.00     342    999.0    -0.6
 241   17:00   64.9    18    4.3   107     10.0   709.1    0.00     295    999.0    -0.8
 241   17:10   64.6    18    2.9   182      5.6   709.3    0.00     251    999.0    -0.6
 241   17:20   64.5    18    3.1   154      7.1   709.3    0.00     213    999.0    -0.7
 241   17:30   63.0    19    2.6   162      7.6   709.3    0.00      66    999.0    -0.8
 241   17:40   61.6    20    2.8   156      8.3   709.2    0.00      54    999.0    -0.7
 241   17:50   61.2    20    2.4   135      8.6   709.2    0.00      40    999.0    -0.7
 241   18:00   60.5    21    3.4   121      8.3   709.3    0.00      29    999.0    -0.7
 241   18:10   60.0    21    3.4   143      7.5   709.2    0.00      16    999.0    -0.7
 241   18:20   59.3    22    2.6   176      5.0   709.3    0.00       7    999.0    -0.7
 241   18:30   58.5    22    1.7   173      3.9   709.3    0.00       3    999.0    -0.8
 241   18:40   56.8    24    2.3   141      4.0   709.3    0.00       1    999.0    -0.9
 241   18:50   54.7    25    2.2   152      3.4   709.3    0.00       0    999.0    -0.7
 241   19:00   53.9    26    1.6   168      3.2   709.5    0.00       0    999.0    -0.7
 241   19:10   53.3    26    1.8   139      4.1   709.5    0.00       0    999.0    -0.7
 241   19:20   51.0    28    0.3     4      1.7   709.5    0.00       0    999.0    -0.7
 241   19:30   50.0    29    0.6   153      2.0   709.5    0.00       0    999.0    -0.7
 241   19:40   50.0    29    1.8   141      3.2   709.7    0.00       0    999.0    -0.8
 241   19:50   48.4    31    0.8   337      2.2   709.7    0.00       0    999.0    -0.7
 241   20:00   48.7    31    0.3   209      1.8   709.6    0.00       0    999.0    -0.6
 241   20:10   49.0    31    0.9   253      6.6   709.8    0.00       0    999.0    -0.6
 241   20:20   48.1    32    2.1   199      5.9   709.8    0.00       0    999.0    -0.7
 241   20:30   47.6    32    0.2   281      1.0   709.8    0.00       0    999.0    -0.8
 241   20:40   46.5    34    0.6   180      1.5   709.9    0.00       0    999.0    -0.7
 241   20:50   47.5    33    1.1   190      3.4   710.0    0.00       0    999.0    -0.6
 241   21:00   47.0    34    1.1   342      3.5   710.0    0.00       0    999.0    -0.8
 241   21:10   45.9    35    0.4   274      2.0   709.8    0.00       0    999.0    -0.7
 241   21:20   45.4    36    0.5   226      2.6   709.9    0.00       0    999.0    -0.7
 241   21:30   45.7    36    1.0   215      2.4   709.9    0.00       0    999.0    -0.6
 241   21:40   46.5    36    2.5   207      5.1   709.9    0.00       0    999.0    -0.6
 241   21:50   49.0    35    1.6   143      2.8   709.9    0.00       0    999.0    -0.7
 241   22:00   49.3    36    1.1   214      3.9   709.9    0.00       0    999.0    -0.7
 241   22:10   49.1    36    1.6   147      4.1   709.9    0.00       0    999.0    -0.7
 241   22:20   48.2    36    1.8   200      4.5   709.9    0.00       0    999.0    -0.8
 241   22:30   46.2    39    3.1   278      6.9   710.0    0.00       0    999.0    -0.7
 241   22:40   46.6    39    1.7   204      6.1   709.9    0.00       0    999.0    -0.7
 241   22:50   46.9    39    1.6   233      6.3   709.9    0.00       0    999.0    -0.8
 241   23:00   46.8    39    2.9   204      6.5   710.0    0.00       0    999.0    -0.7
 241   23:10   46.6    40    1.8   176      4.5   709.9    0.00       0    999.0    -0.7
 241   23:20   46.6    40    2.0   206      5.5   709.9    0.00       0    999.0    -0.8
 241   23:30   46.4    41    1.4   196      3.9   710.0    0.00       0    999.0    -0.7
 241   23:40   46.8    40    1.3   165      3.1   709.9    0.00       0    999.0    -0.7
 241   23:50   45.8    42    0.7   224      3.8   709.8    0.00       0    999.0    -0.8
 242    0:00   46.1    42    1.0   194      4.2   709.8    0.00       0    999.0    -0.7
 242    0:10   46.1    42    0.3   194      1.4   709.8    0.00       0    999.0    -0.8
 242    0:20   45.3    43    0.4   216      1.6   709.8    0.00       0    999.0    -0.7
 242    0:30   45.6    43    0.9   185      3.3   709.8    0.00       0    999.0    -0.7
 242    0:40   45.9    43    0.5   269      4.1   709.7    0.00       0    999.0    -0.8
 242    0:50   45.6    44    0.4   217      2.6   709.7    0.00       0    999.0    -0.6
 242    1:00   45.3    44    0.8   197      2.9   709.7    0.00       0    999.0    -0.7
 242    1:10   45.5    43    1.2     6      3.1   709.7    0.00       0    999.0    -0.6
 242    1:20   45.7    44    0.3   172      2.0   709.7    0.00       0    999.0    -0.7
 242    1:30   45.1    44    0.4   186      1.6   709.8    0.00       0    999.0    -0.7
 242    1:40   44.5    45    0.7   226      3.5   709.8    0.00       0    999.0    -0.8
 242    1:50   43.9    46    1.2   276      4.2   709.8    0.00       0    999.0    -0.7
 242    2:00   43.0    48    0.3   216      1.9   709.7    0.00       0    999.0    -0.7
 242    2:10   42.0    49    0.6   308      1.8   709.6    0.00       0    999.0    -0.7
 242    2:20   41.9    50    0.4   176      1.9   709.6    0.00       0    999.0    -0.6
 242    2:30   41.4    50    1.3   138      3.8   709.8    0.00       0    999.0    -0.6
 242    2:40   41.0    51    2.7   125      3.7   709.6    0.00       0    999.0    -0.6
 242    2:50   41.0    52    1.9   129      3.4   709.6    0.00       0    999.0    -0.6
 242    3:00   41.1    52    1.1   135      2.9   709.7    0.00       0    999.0    -0.7
 242    3:10   41.0    52    0.1   178      1.0   709.6    0.00       0    999.0    -0.6
 242    3:20   40.3    52    2.2   121      3.2   709.7    0.00       0    999.0    -0.7
 242    3:30   39.5    53    2.0   120      2.9   709.6    0.00       0    999.0    -0.7
 242    3:40   38.6    55    0.7   282      2.6   709.6    0.00       0    999.0    -0.5
 242    3:50   39.1    54    0.1   188      0.9   709.6    0.00       0    999.0    -0.6
 242    4:00   38.5    55    0.2   251      2.3   709.4    0.00       0    999.0    -0.5
 242    4:10   38.4    56    0.5   212      1.8   709.6    0.00       0    999.0    -0.6
 242    4:20   37.7    56    0.3   355      2.9   709.6    0.00       0    999.0    -0.6
 242    4:30   37.3    58    0.7   218      2.5   709.6    0.00       0    999.0    -0.5
 242    4:40   37.6    57    0.1   230      0.7   709.6    0.00       0    999.0    -0.6
 242    4:50   37.0    59    0.4   211      1.8   709.8    0.00       0    999.0    -0.6

Return to Crooked Creek Research Lab graphs page.


Western Regional Climate Center,wrcc@dri.edu